CSCL Fuzhou — ELYA7 — position and weather

sailwx.info

Track history (hours):
 
Tides and Currents Weather Stations Pressure Air Temp Water Temp Dewpoint Dewpoint Depression Visibility Wind Speed Wind Dir Waves Ship Positions

CSCL Fuzhou

Last reported at 2017-Jun-27 15:04 UTC. Time now 2017-Jun-28 17:37 UTC.
Position N 35°02' E 139°37'.

Length 207.4 m; beam 29.8 m; draft 11.4 m.

Type: Ship (hazmat cat A). MMSI: 636016483.

Date/timePositionNaut miles runAvg speedWind from/ knotsBaromVisibWave heightAir tempDewpointWater temp
2017-Jun-27 15:04N 35°02' E 139°37'117.8
2017-Jun-27 15:00N 35°03' E 139°38'1513.8
2017-Jun-27 13:57N 35°16' E 139°46'612.5
2017-Jun-27 13:31N 35°21' E 139°42'611.4
2017-Jun-27 13:00N 35°27' E 139°41'0 0.7
2017-Jun-27 12:29N 35°26' E 139°41'0 0.0
2017-Jun-27 11:59N 35°26' E 139°41'0 0.0
2017-Jun-27 11:29N 35°26' E 139°41'0 0.0
2017-Jun-27 10:56N 35°26' E 139°41'0 0.0
2017-Jun-27 10:29N 35°26' E 139°41'0 0.0
2017-Jun-27 09:59N 35°26' E 139°41'0 0.1
2017-Jun-27 09:29N 35°26' E 139°41'0 0.1
2017-Jun-27 08:59N 35°26' E 139°41'0 0.0
2017-Jun-27 08:29N 35°26' E 139°41'0 0.0
2017-Jun-27 07:59N 35°26' E 139°41'0 0.0
2017-Jun-27 07:29N 35°26' E 139°41'0 0.1
2017-Jun-27 06:56N 35°26' E 139°41'0 0.0
2017-Jun-27 06:29N 35°26' E 139°41'0 0.1
2017-Jun-27 05:59N 35°26' E 139°41'0 0.0
2017-Jun-27 05:30N 35°26' E 139°41'0 0.1
2017-Jun-27 05:00N 35°26' E 139°41'0 0.1
2017-Jun-27 04:30N 35°26' E 139°41'0 0.0
2017-Jun-27 04:00N 35°26' E 139°41'0 0.0
2017-Jun-27 03:30N 35°26' E 139°41'0 0.0
2017-Jun-27 03:00N 35°26' E 139°41'0 0.0
2017-Jun-27 02:30N 35°26' E 139°41'0 0.0
2017-Jun-27 02:00N 35°26' E 139°41'0 0.0
2017-Jun-27 01:30N 35°26' E 139°41'0 0.1
2017-Jun-27 01:00N 35°26' E 139°41'0 0.1
2017-Jun-27 00:30N 35°26' E 139°41'0 0.0
2017-Jun-27 00:00N 35°26' E 139°41'0 0.0
2017-Jun-26 23:30N 35°26' E 139°41'0 0.0
2017-Jun-26 23:00N 35°26' E 139°41'1 1.1
2017-Jun-26 22:30N 35°27' E 139°41'3 5.5
2017-Jun-26 22:00N 35°26' E 139°44'510.1
2017-Jun-26 21:30N 35°29' E 139°50'510.0
2017-Jun-26 21:00N 35°34' E 139°49'4 7.2
2017-Jun-26 20:30N 35°37' E 139°47'0 0.1
2017-Jun-26 19:59N 35°37' E 139°47'0 0.0
2017-Jun-26 19:29N 35°37' E 139°47'0 0.0
2017-Jun-26 18:59N 35°37' E 139°47'0 0.0
2017-Jun-26 18:29N 35°37' E 139°47'0 0.0
2017-Jun-26 17:59N 35°37' E 139°47'0 0.0
2017-Jun-26 17:29N 35°37' E 139°47'0 0.0
2017-Jun-26 16:59N 35°37' E 139°47'0 0.0
2017-Jun-26 16:29N 35°37' E 139°47'0 0.0
2017-Jun-26 15:59N 35°37' E 139°47'0 0.0
2017-Jun-26 15:29N 35°37' E 139°47'0 0.0
2017-Jun-26 14:59N 35°37' E 139°47'0 0.0
2017-Jun-26 14:29N 35°37' E 139°47'0 0.0
2017-Jun-26 13:29N 35°37' E 139°47'0 0.0
2017-Jun-26 12:59N 35°37' E 139°47'0 0.0
2017-Jun-26 12:29N 35°37' E 139°47'0 0.0
2017-Jun-26 11:59N 35°37' E 139°47'0 0.0
2017-Jun-26 11:29N 35°37' E 139°47'0 0.0
2017-Jun-26 10:59N 35°37' E 139°47'0 0.0
2017-Jun-26 10:25N 35°37' E 139°47'0 0.0
2017-Jun-26 09:58N 35°37' E 139°47'0 0.0
2017-Jun-26 09:28N 35°37' E 139°47'1 1.8
2017-Jun-26 09:00N 35°36' E 139°47'612.0
2017-Jun-26 08:30N 35°32' E 139°52'714.9
2017-Jun-26 08:00N 35°25' E 139°47'612.9
2017-Jun-26 07:30N 35°19' E 139°44'612.5
2017-Jun-26 07:00N 35°14' E 139°47'610.9
2017-Jun-26 06:30N 35°08' E 139°46'510.6
2017-Jun-26 06:00N 35°03' E 139°43'4 8.9
2017-Jun-26 05:30N 34°59' E 139°42'5 5.4
2017-Jun-26 04:38N 34°55' E 139°39'311.4
2017-Jun-26 04:24N 34°52' E 139°38'  
2017-Jun-21 20:37N 22°47' E 120°05'219.5
2017-Jun-21 20:30N 22°46' E 120°07'918.4
2017-Jun-21 20:00N 22°37' E 120°11'714.8
2017-Jun-21 19:31N 22°33' E 120°17'2 0.2
2017-Jun-21 06:22N 22°33' E 120°20'2 4.7
2017-Jun-21 06:00N 22°33' E 120°18'510.6
2017-Jun-21 05:30N 22°32' E 120°13'611.7
2017-Jun-21 05:00N 22°31' E 120°06'511.1
2017-Jun-21 04:30N 22°30' E 120°00'815.8
2017-Jun-21 04:00N 22°30' E 119°52'  
Track history (hours):
 
Tides and Currents Weather Stations Pressure Air Temp Water Temp Dewpoint Dewpoint Depression Visibility Wind Speed Wind Dir Waves Ship Positions

CSCL Fuzhou

Last reported at 2017-Jun-27 15:04 UTC. Time now 2017-Jun-28 17:37 UTC.
Position N 35°02' E 139°37'.

Length 207.4 m; beam 29.8 m; draft 11.4 m.

Type: Ship (hazmat cat A). MMSI: 636016483.

Date/timePositionNaut miles runAvg speedWind from/ knotsBaromVisibWave heightAir tempDewpointWater temp
2017-Jun-27 15:04N 35°02' E 139°37'117.8
2017-Jun-27 15:00N 35°03' E 139°38'1513.8
2017-Jun-27 13:57N 35°16' E 139°46'612.5
2017-Jun-27 13:31N 35°21' E 139°42'611.4
2017-Jun-27 13:00N 35°27' E 139°41'0 0.7
2017-Jun-27 12:29N 35°26' E 139°41'0 0.0
2017-Jun-27 11:59N 35°26' E 139°41'0 0.0
2017-Jun-27 11:29N 35°26' E 139°41'0 0.0
2017-Jun-27 10:56N 35°26' E 139°41'0 0.0
2017-Jun-27 10:29N 35°26' E 139°41'0 0.0
2017-Jun-27 09:59N 35°26' E 139°41'0 0.1
2017-Jun-27 09:29N 35°26' E 139°41'0 0.1
2017-Jun-27 08:59N 35°26' E 139°41'0 0.0
2017-Jun-27 08:29N 35°26' E 139°41'0 0.0
2017-Jun-27 07:59N 35°26' E 139°41'0 0.0
2017-Jun-27 07:29N 35°26' E 139°41'0 0.1
2017-Jun-27 06:56N 35°26' E 139°41'0 0.0
2017-Jun-27 06:29N 35°26' E 139°41'0 0.1
2017-Jun-27 05:59N 35°26' E 139°41'0 0.0
2017-Jun-27 05:30N 35°26' E 139°41'0 0.1
2017-Jun-27 05:00N 35°26' E 139°41'0 0.1
2017-Jun-27 04:30N 35°26' E 139°41'0 0.0
2017-Jun-27 04:00N 35°26' E 139°41'0 0.0
2017-Jun-27 03:30N 35°26' E 139°41'0 0.0
2017-Jun-27 03:00N 35°26' E 139°41'0 0.0
2017-Jun-27 02:30N 35°26' E 139°41'0 0.0
2017-Jun-27 02:00N 35°26' E 139°41'0 0.0
2017-Jun-27 01:30N 35°26' E 139°41'0 0.1
2017-Jun-27 01:00N 35°26' E 139°41'0 0.1
2017-Jun-27 00:30N 35°26' E 139°41'0 0.0
2017-Jun-27 00:00N 35°26' E 139°41'0 0.0
2017-Jun-26 23:30N 35°26' E 139°41'0 0.0
2017-Jun-26 23:00N 35°26' E 139°41'1 1.1
2017-Jun-26 22:30N 35°27' E 139°41'3 5.5
2017-Jun-26 22:00N 35°26' E 139°44'510.1
2017-Jun-26 21:30N 35°29' E 139°50'510.0
2017-Jun-26 21:00N 35°34' E 139°49'4 7.2
2017-Jun-26 20:30N 35°37' E 139°47'0 0.1
2017-Jun-26 19:59N 35°37' E 139°47'0 0.0
2017-Jun-26 19:29N 35°37' E 139°47'0 0.0
2017-Jun-26 18:59N 35°37' E 139°47'0 0.0
2017-Jun-26 18:29N 35°37' E 139°47'0 0.0
2017-Jun-26 17:59N 35°37' E 139°47'0 0.0
2017-Jun-26 17:29N 35°37' E 139°47'0 0.0
2017-Jun-26 16:59N 35°37' E 139°47'0 0.0
2017-Jun-26 16:29N 35°37' E 139°47'0 0.0
2017-Jun-26 15:59N 35°37' E 139°47'0 0.0
2017-Jun-26 15:29N 35°37' E 139°47'0 0.0
2017-Jun-26 14:59N 35°37' E 139°47'0 0.0
2017-Jun-26 14:29N 35°37' E 139°47'0 0.0
2017-Jun-26 13:29N 35°37' E 139°47'0 0.0
2017-Jun-26 12:59N 35°37' E 139°47'0 0.0
2017-Jun-26 12:29N 35°37' E 139°47'0 0.0
2017-Jun-26 11:59N 35°37' E 139°47'0 0.0
2017-Jun-26 11:29N 35°37' E 139°47'0 0.0
2017-Jun-26 10:59N 35°37' E 139°47'0 0.0
2017-Jun-26 10:25N 35°37' E 139°47'0 0.0
2017-Jun-26 09:58N 35°37' E 139°47'0 0.0
2017-Jun-26 09:28N 35°37' E 139°47'1 1.8
2017-Jun-26 09:00N 35°36' E 139°47'612.0
2017-Jun-26 08:30N 35°32' E 139°52'714.9
2017-Jun-26 08:00N 35°25' E 139°47'612.9
2017-Jun-26 07:30N 35°19' E 139°44'612.5
2017-Jun-26 07:00N 35°14' E 139°47'610.9
2017-Jun-26 06:30N 35°08' E 139°46'510.6
2017-Jun-26 06:00N 35°03' E 139°43'4 8.9
2017-Jun-26 05:30N 34°59' E 139°42'5 5.4
2017-Jun-26 04:38N 34°55' E 139°39'311.4
2017-Jun-26 04:24N 34°52' E 139°38'  
2017-Jun-21 20:37N 22°47' E 120°05'219.5
2017-Jun-21 20:30N 22°46' E 120°07'918.4
2017-Jun-21 20:00N 22°37' E 120°11'714.8
2017-Jun-21 19:31N 22°33' E 120°17'2 0.2
2017-Jun-21 06:22N 22°33' E 120°20'2 4.7
2017-Jun-21 06:00N 22°33' E 120°18'510.6
2017-Jun-21 05:30N 22°32' E 120°13'611.7
2017-Jun-21 05:00N 22°31' E 120°06'511.1
2017-Jun-21 04:30N 22°30' E 120°00'815.8
2017-Jun-21 04:00N 22°30' E 119°52'  

Dump ship's entire track history